sensor_id;sensor_type;location;lat;lon;timestamp;P1;durP1;ratioP1;P2;durP2;ratioP2
10170;SDS011;5127;50.922;6.988;2022-09-17T00:01:25;4.50;;;1.10;;
10170;SDS011;5127;50.922;6.988;2022-09-17T00:03:54;2.93;;;1.07;;
10170;SDS011;5127;50.922;6.988;2022-09-17T00:06:22;2.57;;;1.13;;
10170;SDS011;5127;50.922;6.988;2022-09-17T00:08:51;1.97;;;0.97;;
10170;SDS011;5127;50.922;6.988;2022-09-17T00:11:21;4.03;;;1.30;;
10170;SDS011;5127;50.922;6.988;2022-09-17T00:13:49;5.63;;;1.20;;
10170;SDS011;5127;50.922;6.988;2022-09-17T00:16:23;2.27;;;1.00;;
10170;SDS011;5127;50.922;6.988;2022-09-17T00:18:52;3.33;;;1.10;;
10170;SDS011;5127;50.922;6.988;2022-09-17T00:21:19;3.03;;;1.40;;
10170;SDS011;5127;50.922;6.988;2022-09-17T00:23:47;7.57;;;1.30;;
10170;SDS011;5127;50.922;6.988;2022-09-17T00:26:14;3.03;;;1.20;;
10170;SDS011;5127;50.922;6.988;2022-09-17T00:28:43;3.03;;;0.97;;
10170;SDS011;5127;50.922;6.988;2022-09-17T00:31:13;3.13;;;1.00;;
10170;SDS011;5127;50.922;6.988;2022-09-17T00:33:41;3.53;;;1.10;;
10170;SDS011;5127;50.922;6.988;2022-09-17T00:36:08;2.17;;;1.10;;
10170;SDS011;5127;50.922;6.988;2022-09-17T00:38:36;2.63;;;1.20;;
10170;SDS011;5127;50.922;6.988;2022-09-17T00:41:04;3.43;;;1.40;;
10170;SDS011;5127;50.922;6.988;2022-09-17T00:43:32;3.13;;;1.20;;
10170;SDS011;5127;50.922;6.988;2022-09-17T00:46:03;7.03;;;1.50;;
10170;SDS011;5127;50.922;6.988;2022-09-17T00:48:37;3.57;;;1.10;;
10170;SDS011;5127;50.922;6.988;2022-09-17T00:51:05;3.63;;;1.20;;
10170;SDS011;5127;50.922;6.988;2022-09-17T00:53:36;2.90;;;1.17;;
10170;SDS011;5127;50.922;6.988;2022-09-17T00:56:06;2.80;;;1.20;;
10170;SDS011;5127;50.922;6.988;2022-09-17T00:58:40;2.90;;;1.20;;
10170;SDS011;5127;50.922;6.988;2022-09-17T01:01:08;3.30;;;1.40;;
10170;SDS011;5127;50.922;6.988;2022-09-17T01:03:35;3.33;;;1.40;;
10170;SDS011;5127;50.922;6.988;2022-09-17T01:06:04;3.40;;;1.10;;
10170;SDS011;5127;50.922;6.988;2022-09-17T01:08:40;6.07;;;1.40;;
10170;SDS011;5127;50.922;6.988;2022-09-17T01:11:17;3.30;;;1.20;;
10170;SDS011;5127;50.922;6.988;2022-09-17T01:13:57;4.13;;;1.33;;
10170;SDS011;5127;50.922;6.988;2022-09-17T01:16:36;2.90;;;1.20;;
10170;SDS011;5127;50.922;6.988;2022-09-17T01:19:42;2.90;;;1.20;;
10170;SDS011;5127;50.922;6.988;2022-09-17T01:22:31;4.57;;;1.13;;
10170;SDS011;5127;50.922;6.988;2022-09-17T01:25:05;3.63;;;1.13;;
10170;SDS011;5127;50.922;6.988;2022-09-17T01:30:56;4.50;;;1.40;;
10170;SDS011;5127;50.922;6.988;2022-09-17T01:33:30;4.20;;;1.23;;
10170;SDS011;5127;50.922;6.988;2022-09-17T01:36:13;4.97;;;1.30;;
10170;SDS011;5127;50.922;6.988;2022-09-17T01:38:50;4.27;;;1.40;;
10170;SDS011;5127;50.922;6.988;2022-09-17T01:41:23;3.33;;;1.10;;
10170;SDS011;5127;50.922;6.988;2022-09-17T01:43:57;3.60;;;1.37;;
10170;SDS011;5127;50.922;6.988;2022-09-17T01:46:30;4.83;;;1.20;;
10170;SDS011;5127;50.922;6.988;2022-09-17T01:49:01;2.67;;;1.40;;
10170;SDS011;5127;50.922;6.988;2022-09-17T01:51:31;4.07;;;1.13;;
10170;SDS011;5127;50.922;6.988;2022-09-17T01:54:04;3.80;;;1.37;;
10170;SDS011;5127;50.922;6.988;2022-09-17T01:56:36;2.77;;;1.27;;
10170;SDS011;5127;50.922;6.988;2022-09-17T01:59:09;4.03;;;1.50;;
10170;SDS011;5127;50.922;6.988;2022-09-17T02:01:43;3.20;;;1.50;;
10170;SDS011;5127;50.922;6.988;2022-09-17T02:04:14;4.60;;;1.20;;
10170;SDS011;5127;50.922;6.988;2022-09-17T02:06:48;5.67;;;1.20;;
10170;SDS011;5127;50.922;6.988;2022-09-17T02:09:20;6.27;;;1.20;;
10170;SDS011;5127;50.922;6.988;2022-09-17T02:11:51;5.00;;;1.57;;
10170;SDS011;5127;50.922;6.988;2022-09-17T02:14:23;3.77;;;1.30;;
10170;SDS011;5127;50.922;6.988;2022-09-17T02:16:58;2.87;;;1.20;;
10170;SDS011;5127;50.922;6.988;2022-09-17T02:19:31;3.47;;;1.37;;
10170;SDS011;5127;50.922;6.988;2022-09-17T02:22:04;5.73;;;1.33;;
10170;SDS011;5127;50.922;6.988;2022-09-17T02:24:41;3.20;;;1.10;;
10170;SDS011;5127;50.922;6.988;2022-09-17T02:27:14;3.80;;;1.10;;
10170;SDS011;5127;50.922;6.988;2022-09-17T02:29:48;4.17;;;1.20;;
10170;SDS011;5127;50.922;6.988;2022-09-17T02:32:17;2.83;;;1.20;;
10170;SDS011;5127;50.922;6.988;2022-09-17T02:34:44;4.30;;;1.57;;
10170;SDS011;5127;50.922;6.988;2022-09-17T02:37:12;3.97;;;1.43;;
10170;SDS011;5127;50.922;6.988;2022-09-17T02:39:39;3.17;;;1.40;;
10170;SDS011;5127;50.922;6.988;2022-09-17T02:42:10;5.60;;;1.20;;
10170;SDS011;5127;50.922;6.988;2022-09-17T02:44:51;4.13;;;1.60;;
10170;SDS011;5127;50.922;6.988;2022-09-17T02:50:25;3.87;;;1.40;;
10170;SDS011;5127;50.922;6.988;2022-09-17T02:53:04;5.30;;;1.53;;
10170;SDS011;5127;50.922;6.988;2022-09-17T02:55:39;4.43;;;1.60;;
10170;SDS011;5127;50.922;6.988;2022-09-17T02:58:13;5.23;;;1.33;;
10170;SDS011;5127;50.922;6.988;2022-09-17T03:00:46;6.83;;;1.60;;
10170;SDS011;5127;50.922;6.988;2022-09-17T03:03:16;3.30;;;1.23;;
10170;SDS011;5127;50.922;6.988;2022-09-17T03:05:48;7.37;;;1.57;;
10170;SDS011;5127;50.922;6.988;2022-09-17T03:08:16;4.13;;;1.47;;
10170;SDS011;5127;50.922;6.988;2022-09-17T03:10:44;4.30;;;1.67;;
10170;SDS011;5127;50.922;6.988;2022-09-17T03:13:13;5.63;;;1.70;;
10170;SDS011;5127;50.922;6.988;2022-09-17T03:15:41;5.03;;;1.60;;
10170;SDS011;5127;50.922;6.988;2022-09-17T03:18:08;4.23;;;1.40;;
10170;SDS011;5127;50.922;6.988;2022-09-17T03:20:37;4.60;;;1.60;;
10170;SDS011;5127;50.922;6.988;2022-09-17T03:23:04;5.47;;;1.70;;
10170;SDS011;5127;50.922;6.988;2022-09-17T03:25:31;7.57;;;1.93;;
10170;SDS011;5127;50.922;6.988;2022-09-17T03:27:58;3.63;;;1.43;;
10170;SDS011;5127;50.922;6.988;2022-09-17T03:30:25;7.80;;;1.97;;
10170;SDS011;5127;50.922;6.988;2022-09-17T03:32:53;4.40;;;1.73;;
10170;SDS011;5127;50.922;6.988;2022-09-17T03:35:20;5.87;;;1.87;;
10170;SDS011;5127;50.922;6.988;2022-09-17T03:37:48;6.60;;;1.80;;
10170;SDS011;5127;50.922;6.988;2022-09-17T03:40:15;6.47;;;1.60;;
10170;SDS011;5127;50.922;6.988;2022-09-17T03:42:44;3.87;;;1.37;;
10170;SDS011;5127;50.922;6.988;2022-09-17T03:45:11;5.13;;;1.43;;
10170;SDS011;5127;50.922;6.988;2022-09-17T03:47:38;4.13;;;1.60;;
10170;SDS011;5127;50.922;6.988;2022-09-17T03:50:06;5.60;;;1.40;;
10170;SDS011;5127;50.922;6.988;2022-09-17T03:52:34;3.07;;;1.33;;
10170;SDS011;5127;50.922;6.988;2022-09-17T03:55:02;3.47;;;1.20;;
10170;SDS011;5127;50.922;6.988;2022-09-17T03:57:30;7.13;;;1.93;;
10170;SDS011;5127;50.922;6.988;2022-09-17T03:59:57;6.10;;;1.67;;
10170;SDS011;5127;50.922;6.988;2022-09-17T04:02:25;5.53;;;1.47;;
10170;SDS011;5127;50.922;6.988;2022-09-17T04:04:52;5.93;;;1.50;;
10170;SDS011;5127;50.922;6.988;2022-09-17T04:07:19;5.37;;;1.50;;
10170;SDS011;5127;50.922;6.988;2022-09-17T04:09:46;4.60;;;1.60;;
10170;SDS011;5127;50.922;6.988;2022-09-17T04:12:15;4.17;;;1.23;;
10170;SDS011;5127;50.922;6.988;2022-09-17T04:14:42;3.30;;;1.40;;
10170;SDS011;5127;50.922;6.988;2022-09-17T04:17:09;5.93;;;1.57;;
10170;SDS011;5127;50.922;6.988;2022-09-17T04:19:36;3.40;;;1.20;;
10170;SDS011;5127;50.922;6.988;2022-09-17T04:22:04;5.67;;;1.67;;
10170;SDS011;5127;50.922;6.988;2022-09-17T04:24:31;5.37;;;1.50;;
10170;SDS011;5127;50.922;6.988;2022-09-17T04:26:58;7.33;;;1.73;;
10170;SDS011;5127;50.922;6.988;2022-09-17T04:29:26;4.00;;;1.40;;
10170;SDS011;5127;50.922;6.988;2022-09-17T04:31:54;5.40;;;1.50;;
10170;SDS011;5127;50.922;6.988;2022-09-17T04:34:21;4.67;;;1.77;;
10170;SDS011;5127;50.922;6.988;2022-09-17T04:36:48;5.97;;;1.60;;
10170;SDS011;5127;50.922;6.988;2022-09-17T04:39:15;3.50;;;1.47;;
10170;SDS011;5127;50.922;6.988;2022-09-17T04:41:42;5.77;;;1.53;;
10170;SDS011;5127;50.922;6.988;2022-09-17T04:44:10;5.40;;;1.70;;
10170;SDS011;5127;50.922;6.988;2022-09-17T04:46:38;4.73;;;1.30;;
10170;SDS011;5127;50.922;6.988;2022-09-17T04:49:05;3.73;;;1.50;;
10170;SDS011;5127;50.922;6.988;2022-09-17T04:51:33;3.20;;;1.60;;
10170;SDS011;5127;50.922;6.988;2022-09-17T04:54:00;5.13;;;1.50;;
10170;SDS011;5127;50.922;6.988;2022-09-17T04:56:27;6.70;;;1.60;;
10170;SDS011;5127;50.922;6.988;2022-09-17T04:58:54;4.00;;;1.50;;
10170;SDS011;5127;50.922;6.988;2022-09-17T05:01:22;4.17;;;1.50;;
10170;SDS011;5127;50.922;6.988;2022-09-17T05:03:50;6.67;;;1.60;;
10170;SDS011;5127;50.922;6.988;2022-09-17T05:06:18;4.73;;;1.33;;
10170;SDS011;5127;50.922;6.988;2022-09-17T05:08:45;5.33;;;1.40;;
10170;SDS011;5127;50.922;6.988;2022-09-17T05:11:12;5.50;;;1.57;;
10170;SDS011;5127;50.922;6.988;2022-09-17T05:13:39;4.53;;;1.43;;
10170;SDS011;5127;50.922;6.988;2022-09-17T05:16:06;3.80;;;1.30;;
10170;SDS011;5127;50.922;6.988;2022-09-17T05:18:34;4.40;;;1.23;;
10170;SDS011;5127;50.922;6.988;2022-09-17T05:21:02;4.03;;;1.40;;
10170;SDS011;5127;50.922;6.988;2022-09-17T05:23:30;4.27;;;1.27;;
10170;SDS011;5127;50.922;6.988;2022-09-17T05:25:57;5.63;;;1.53;;
10170;SDS011;5127;50.922;6.988;2022-09-17T05:28:25;5.20;;;1.27;;
10170;SDS011;5127;50.922;6.988;2022-09-17T05:30:52;3.97;;;1.50;;
10170;SDS011;5127;50.922;6.988;2022-09-17T05:33:19;3.87;;;1.37;;
10170;SDS011;5127;50.922;6.988;2022-09-17T05:35:49;6.90;;;1.60;;
10170;SDS011;5127;50.922;6.988;2022-09-17T05:38:18;3.50;;;1.03;;
10170;SDS011;5127;50.922;6.988;2022-09-17T05:40:45;4.53;;;1.37;;
10170;SDS011;5127;50.922;6.988;2022-09-17T05:43:13;5.23;;;1.60;;
10170;SDS011;5127;50.922;6.988;2022-09-17T05:45:41;5.13;;;1.13;;
10170;SDS011;5127;50.922;6.988;2022-09-17T05:48:09;3.30;;;1.60;;
10170;SDS011;5127;50.922;6.988;2022-09-17T05:50:39;4.93;;;1.77;;
10170;SDS011;5127;50.922;6.988;2022-09-17T05:53:07;6.20;;;1.70;;
10170;SDS011;5127;50.922;6.988;2022-09-17T05:55:38;4.80;;;1.30;;
10170;SDS011;5127;50.922;6.988;2022-09-17T05:58:09;5.37;;;1.67;;
10170;SDS011;5127;50.922;6.988;2022-09-17T06:00:37;3.10;;;1.13;;
10170;SDS011;5127;50.922;6.988;2022-09-17T06:03:07;4.07;;;1.30;;
10170;SDS011;5127;50.922;6.988;2022-09-17T06:05:34;5.00;;;1.17;;
10170;SDS011;5127;50.922;6.988;2022-09-17T06:08:01;4.60;;;1.30;;
10170;SDS011;5127;50.922;6.988;2022-09-17T06:10:30;4.10;;;1.17;;
10170;SDS011;5127;50.922;6.988;2022-09-17T06:12:58;3.77;;;1.33;;
10170;SDS011;5127;50.922;6.988;2022-09-17T06:15:26;5.37;;;1.17;;
10170;SDS011;5127;50.922;6.988;2022-09-17T06:17:54;3.93;;;1.30;;
10170;SDS011;5127;50.922;6.988;2022-09-17T06:20:21;4.60;;;1.57;;
10170;SDS011;5127;50.922;6.988;2022-09-17T06:22:48;6.47;;;1.27;;
10170;SDS011;5127;50.922;6.988;2022-09-17T06:25:21;4.20;;;1.27;;
10170;SDS011;5127;50.922;6.988;2022-09-17T06:27:49;4.20;;;1.17;;
10170;SDS011;5127;50.922;6.988;2022-09-17T06:30:17;6.13;;;1.10;;
10170;SDS011;5127;50.922;6.988;2022-09-17T06:32:45;7.17;;;1.63;;
10170;SDS011;5127;50.922;6.988;2022-09-17T06:35:12;5.83;;;1.70;;
10170;SDS011;5127;50.922;6.988;2022-09-17T06:37:39;3.87;;;1.50;;
10170;SDS011;5127;50.922;6.988;2022-09-17T06:40:07;4.30;;;1.40;;
10170;SDS011;5127;50.922;6.988;2022-09-17T06:42:35;5.93;;;1.50;;
10170;SDS011;5127;50.922;6.988;2022-09-17T06:45:02;3.37;;;1.30;;
10170;SDS011;5127;50.922;6.988;2022-09-17T06:47:31;3.80;;;1.50;;
10170;SDS011;5127;50.922;6.988;2022-09-17T06:49:58;4.17;;;1.20;;
10170;SDS011;5127;50.922;6.988;2022-09-17T06:52:26;4.43;;;1.20;;
10170;SDS011;5127;50.922;6.988;2022-09-17T06:54:53;4.37;;;1.20;;
10170;SDS011;5127;50.922;6.988;2022-09-17T06:57:21;7.00;;;1.83;;
10170;SDS011;5127;50.922;6.988;2022-09-17T06:59:48;4.97;;;1.10;;
10170;SDS011;5127;50.922;6.988;2022-09-17T07:02:16;6.13;;;1.33;;
10170;SDS011;5127;50.922;6.988;2022-09-17T07:04:44;3.50;;;1.30;;
10170;SDS011;5127;50.922;6.988;2022-09-17T07:07:12;4.37;;;1.40;;
10170;SDS011;5127;50.922;6.988;2022-09-17T07:09:39;6.17;;;1.30;;
10170;SDS011;5127;50.922;6.988;2022-09-17T07:12:07;4.10;;;1.20;;
10170;SDS011;5127;50.922;6.988;2022-09-17T07:14:34;3.40;;;1.10;;
10170;SDS011;5127;50.922;6.988;2022-09-17T07:17:01;3.13;;;1.10;;
10170;SDS011;5127;50.922;6.988;2022-09-17T07:19:29;4.77;;;1.40;;
10170;SDS011;5127;50.922;6.988;2022-09-17T07:21:57;4.43;;;1.40;;
10170;SDS011;5127;50.922;6.988;2022-09-17T07:24:25;6.63;;;1.33;;
10170;SDS011;5127;50.922;6.988;2022-09-17T07:26:52;5.17;;;1.17;;
10170;SDS011;5127;50.922;6.988;2022-09-17T07:29:19;3.37;;;1.13;;
10170;SDS011;5127;50.922;6.988;2022-09-17T07:31:47;7.67;;;1.30;;
10170;SDS011;5127;50.922;6.988;2022-09-17T07:34:14;5.00;;;1.43;;
10170;SDS011;5127;50.922;6.988;2022-09-17T07:36:42;3.83;;;1.10;;
10170;SDS011;5127;50.922;6.988;2022-09-17T07:39:11;2.90;;;1.13;;
10170;SDS011;5127;50.922;6.988;2022-09-17T07:41:38;2.73;;;1.10;;
10170;SDS011;5127;50.922;6.988;2022-09-17T07:44:06;2.93;;;1.20;;
10170;SDS011;5127;50.922;6.988;2022-09-17T07:46:34;3.97;;;1.23;;
10170;SDS011;5127;50.922;6.988;2022-09-17T07:49:01;3.30;;;1.27;;
10170;SDS011;5127;50.922;6.988;2022-09-17T07:51:29;4.53;;;1.50;;
10170;SDS011;5127;50.922;6.988;2022-09-17T07:53:57;5.63;;;1.30;;
10170;SDS011;5127;50.922;6.988;2022-09-17T07:56:26;3.37;;;1.13;;
10170;SDS011;5127;50.922;6.988;2022-09-17T07:58:54;4.70;;;1.67;;
10170;SDS011;5127;50.922;6.988;2022-09-17T08:01:21;3.70;;;1.50;;
10170;SDS011;5127;50.922;6.988;2022-09-17T08:03:49;4.60;;;1.20;;
10170;SDS011;5127;50.922;6.988;2022-09-17T08:06:18;6.53;;;1.70;;
10170;SDS011;5127;50.922;6.988;2022-09-17T08:08:47;4.60;;;1.37;;
10170;SDS011;5127;50.922;6.988;2022-09-17T08:11:15;4.27;;;1.23;;
10170;SDS011;5127;50.922;6.988;2022-09-17T08:13:47;4.60;;;1.53;;
10170;SDS011;5127;50.922;6.988;2022-09-17T08:16:15;4.03;;;1.40;;
10170;SDS011;5127;50.922;6.988;2022-09-17T08:18:43;5.90;;;1.57;;
10170;SDS011;5127;50.922;6.988;2022-09-17T08:21:12;4.20;;;1.30;;
10170;SDS011;5127;50.922;6.988;2022-09-17T08:23:40;8.03;;;1.30;;
10170;SDS011;5127;50.922;6.988;2022-09-17T08:26:11;4.18;;;1.10;;
10170;SDS011;5127;50.922;6.988;2022-09-17T08:28:43;3.35;;;1.02;;
10170;SDS011;5127;50.922;6.988;2022-09-17T08:31:14;7.10;;;1.15;;
10170;SDS011;5127;50.922;6.988;2022-09-17T08:33:42;7.13;;;1.30;;
10170;SDS011;5127;50.922;6.988;2022-09-17T08:36:10;5.45;;;1.23;;
10170;SDS011;5127;50.922;6.988;2022-09-17T08:38:39;3.53;;;1.40;;
10170;SDS011;5127;50.922;6.988;2022-09-17T08:41:11;4.27;;;1.40;;
10170;SDS011;5127;50.922;6.988;2022-09-17T08:43:47;5.30;;;1.43;;
10170;SDS011;5127;50.922;6.988;2022-09-17T08:46:25;4.10;;;1.10;;
10170;SDS011;5127;50.922;6.988;2022-09-17T08:48:55;5.37;;;1.40;;
10170;SDS011;5127;50.922;6.988;2022-09-17T08:51:35;4.23;;;1.10;;
10170;SDS011;5127;50.922;6.988;2022-09-17T08:54:09;3.13;;;1.00;;
10170;SDS011;5127;50.922;6.988;2022-09-17T08:56:42;2.92;;;0.93;;
10170;SDS011;5127;50.922;6.988;2022-09-17T08:59:15;5.25;;;1.63;;
10170;SDS011;5127;50.922;6.988;2022-09-17T09:01:52;2.08;;;1.02;;
10170;SDS011;5127;50.922;6.988;2022-09-17T09:07:20;3.67;;;1.10;;
10170;SDS011;5127;50.922;6.988;2022-09-17T09:09:52;3.17;;;0.90;;
10170;SDS011;5127;50.922;6.988;2022-09-17T09:12:31;2.95;;;1.10;;
10170;SDS011;5127;50.922;6.988;2022-09-17T09:15:01;3.90;;;1.30;;
10170;SDS011;5127;50.922;6.988;2022-09-17T09:17:33;3.47;;;1.00;;
10170;SDS011;5127;50.922;6.988;2022-09-17T09:20:04;3.73;;;1.23;;
10170;SDS011;5127;50.922;6.988;2022-09-17T09:22:44;2.33;;;1.00;;
10170;SDS011;5127;50.922;6.988;2022-09-17T09:25:17;4.77;;;1.10;;
10170;SDS011;5127;50.922;6.988;2022-09-17T09:28:02;4.37;;;1.37;;
10170;SDS011;5127;50.922;6.988;2022-09-17T09:30:43;6.73;;;1.60;;
10170;SDS011;5127;50.922;6.988;2022-09-17T09:33:21;4.33;;;1.20;;
10170;SDS011;5127;50.922;6.988;2022-09-17T09:35:56;6.97;;;1.27;;
10170;SDS011;5127;50.922;6.988;2022-09-17T09:38:28;4.43;;;1.40;;
10170;SDS011;5127;50.922;6.988;2022-09-17T09:40:59;4.27;;;1.23;;
10170;SDS011;5127;50.922;6.988;2022-09-17T09:43:35;4.20;;;1.40;;
10170;SDS011;5127;50.922;6.988;2022-09-17T09:46:15;5.37;;;1.50;;
10170;SDS011;5127;50.922;6.988;2022-09-17T09:49:04;3.10;;;1.00;;
10170;SDS011;5127;50.922;6.988;2022-09-17T09:51:40;4.13;;;1.20;;
10170;SDS011;5127;50.922;6.988;2022-09-17T09:54:21;3.27;;;1.37;;
10170;SDS011;5127;50.922;6.988;2022-09-17T09:56:56;3.43;;;1.30;;
10170;SDS011;5127;50.922;6.988;2022-09-17T09:59:28;3.07;;;1.00;;
10170;SDS011;5127;50.922;6.988;2022-09-17T10:01:56;3.87;;;0.93;;
10170;SDS011;5127;50.922;6.988;2022-09-17T10:04:25;9.67;;;1.37;;
10170;SDS011;5127;50.922;6.988;2022-09-17T10:06:58;4.47;;;1.20;;
10170;SDS011;5127;50.922;6.988;2022-09-17T10:09:28;3.57;;;1.07;;
10170;SDS011;5127;50.922;6.988;2022-09-17T10:12:01;3.40;;;0.90;;
10170;SDS011;5127;50.922;6.988;2022-09-17T10:14:40;3.30;;;1.20;;
10170;SDS011;5127;50.922;6.988;2022-09-17T10:17:09;1.63;;;0.60;;
10170;SDS011;5127;50.922;6.988;2022-09-17T10:22:41;2.77;;;1.10;;
10170;SDS011;5127;50.922;6.988;2022-09-17T10:25:26;2.40;;;1.10;;
10170;SDS011;5127;50.922;6.988;2022-09-17T10:27:55;5.20;;;0.93;;
10170;SDS011;5127;50.922;6.988;2022-09-17T10:30:24;2.97;;;0.90;;
10170;SDS011;5127;50.922;6.988;2022-09-17T10:33:13;3.23;;;0.90;;
10170;SDS011;5127;50.922;6.988;2022-09-17T10:35:56;5.47;;;1.00;;
10170;SDS011;5127;50.922;6.988;2022-09-17T10:38:26;2.90;;;0.73;;
10170;SDS011;5127;50.922;6.988;2022-09-17T10:41:14;4.23;;;0.90;;
10170;SDS011;5127;50.922;6.988;2022-09-17T10:43:44;2.73;;;0.80;;
10170;SDS011;5127;50.922;6.988;2022-09-17T10:46:13;2.13;;;0.60;;
10170;SDS011;5127;50.922;6.988;2022-09-17T10:48:43;2.03;;;0.83;;
10170;SDS011;5127;50.922;6.988;2022-09-17T10:51:22;3.00;;;0.70;;
10170;SDS011;5127;50.922;6.988;2022-09-17T10:53:55;1.93;;;0.60;;
10170;SDS011;5127;50.922;6.988;2022-09-17T10:56:31;2.83;;;0.70;;
10170;SDS011;5127;50.922;6.988;2022-09-17T10:59:03;3.57;;;1.00;;
10170;SDS011;5127;50.922;6.988;2022-09-17T11:01:47;1.70;;;0.60;;
10170;SDS011;5127;50.922;6.988;2022-09-17T11:04:24;3.23;;;1.00;;
10170;SDS011;5127;50.922;6.988;2022-09-17T11:07:11;4.53;;;0.77;;
10170;SDS011;5127;50.922;6.988;2022-09-17T11:10:10;2.70;;;0.70;;
10170;SDS011;5127;50.922;6.988;2022-09-17T11:12:46;2.37;;;0.80;;
10170;SDS011;5127;50.922;6.988;2022-09-17T11:15:28;3.67;;;1.00;;
10170;SDS011;5127;50.922;6.988;2022-09-17T11:18:11;2.13;;;0.93;;
10170;SDS011;5127;50.922;6.988;2022-09-17T11:20:55;3.27;;;0.77;;
10170;SDS011;5127;50.922;6.988;2022-09-17T11:23:45;2.23;;;0.80;;
10170;SDS011;5127;50.922;6.988;2022-09-17T11:26:31;2.20;;;0.85;;
10170;SDS011;5127;50.922;6.988;2022-09-17T11:29:09;2.60;;;0.90;;
10170;SDS011;5127;50.922;6.988;2022-09-17T11:31:53;1.95;;;0.70;;
10170;SDS011;5127;50.922;6.988;2022-09-17T11:34:29;3.30;;;1.00;;
10170;SDS011;5127;50.922;6.988;2022-09-17T11:37:03;2.23;;;0.70;;
10170;SDS011;5127;50.922;6.988;2022-09-17T11:39:40;2.93;;;1.03;;
10170;SDS011;5127;50.922;6.988;2022-09-17T11:42:12;2.23;;;0.77;;
10170;SDS011;5127;50.922;6.988;2022-09-17T11:44:46;1.30;;;0.70;;
10170;SDS011;5127;50.922;6.988;2022-09-17T11:47:18;2.20;;;0.67;;
10170;SDS011;5127;50.922;6.988;2022-09-17T11:49:49;1.67;;;0.70;;
10170;SDS011;5127;50.922;6.988;2022-09-17T11:52:20;2.03;;;0.67;;
10170;SDS011;5127;50.922;6.988;2022-09-17T11:54:54;1.10;;;0.43;;
10170;SDS011;5127;50.922;6.988;2022-09-17T11:57:24;1.03;;;0.33;;
10170;SDS011;5127;50.922;6.988;2022-09-17T11:59:58;1.03;;;0.40;;
10170;SDS011;5127;50.922;6.988;2022-09-17T12:02:41;1.40;;;0.50;;
10170;SDS011;5127;50.922;6.988;2022-09-17T12:05:16;2.07;;;0.50;;
10170;SDS011;5127;50.922;6.988;2022-09-17T12:07:47;1.73;;;0.40;;
10170;SDS011;5127;50.922;6.988;2022-09-17T12:10:28;1.93;;;0.70;;
10170;SDS011;5127;50.922;6.988;2022-09-17T12:13:01;1.33;;;0.50;;
10170;SDS011;5127;50.922;6.988;2022-09-17T12:15:39;2.73;;;0.70;;
10170;SDS011;5127;50.922;6.988;2022-09-17T12:18:15;3.20;;;0.63;;
10170;SDS011;5127;50.922;6.988;2022-09-17T12:20:51;1.30;;;0.53;;
10170;SDS011;5127;50.922;6.988;2022-09-17T12:23:24;2.67;;;0.57;;
10170;SDS011;5127;50.922;6.988;2022-09-17T12:26:00;1.43;;;0.50;;
10170;SDS011;5127;50.922;6.988;2022-09-17T12:28:39;1.13;;;0.50;;
10170;SDS011;5127;50.922;6.988;2022-09-17T12:31:17;1.30;;;0.50;;
10170;SDS011;5127;50.922;6.988;2022-09-17T12:33:52;1.60;;;0.67;;
10170;SDS011;5127;50.922;6.988;2022-09-17T12:42:20;1.17;;;0.50;;
10170;SDS011;5127;50.922;6.988;2022-09-17T12:45:00;1.70;;;0.63;;
10170;SDS011;5127;50.922;6.988;2022-09-17T12:47:41;2.23;;;0.70;;
10170;SDS011;5127;50.922;6.988;2022-09-17T12:50:23;2.73;;;0.83;;
10170;SDS011;5127;50.922;6.988;2022-09-17T12:53:06;2.13;;;0.83;;
10170;SDS011;5127;50.922;6.988;2022-09-17T12:55:43;1.43;;;0.60;;
10170;SDS011;5127;50.922;6.988;2022-09-17T12:58:27;2.57;;;0.80;;
10170;SDS011;5127;50.922;6.988;2022-09-17T13:01:12;2.60;;;0.90;;
10170;SDS011;5127;50.922;6.988;2022-09-17T13:03:45;3.03;;;0.90;;
10170;SDS011;5127;50.922;6.988;2022-09-17T13:06:27;2.70;;;0.87;;
10170;SDS011;5127;50.922;6.988;2022-09-17T13:12:32;2.67;;;0.70;;
10170;SDS011;5127;50.922;6.988;2022-09-17T13:15:14;1.53;;;0.60;;
10170;SDS011;5127;50.922;6.988;2022-09-17T13:18:11;1.90;;;0.67;;
10170;SDS011;5127;50.922;6.988;2022-09-17T13:20:47;1.77;;;0.43;;
10170;SDS011;5127;50.922;6.988;2022-09-17T13:23:30;1.70;;;0.47;;
10170;SDS011;5127;50.922;6.988;2022-09-17T13:26:00;1.20;;;0.83;;
10170;SDS011;5127;50.922;6.988;2022-09-17T13:28:37;1.30;;;0.43;;
10170;SDS011;5127;50.922;6.988;2022-09-17T13:31:07;2.67;;;0.53;;
10170;SDS011;5127;50.922;6.988;2022-09-17T13:33:49;1.90;;;0.57;;
10170;SDS011;5127;50.922;6.988;2022-09-17T13:39:02;1.27;;;0.60;;
10170;SDS011;5127;50.922;6.988;2022-09-17T13:41:31;1.50;;;0.70;;
10170;SDS011;5127;50.922;6.988;2022-09-17T13:44:02;3.13;;;0.70;;
10170;SDS011;5127;50.922;6.988;2022-09-17T13:46:31;2.73;;;0.70;;
10170;SDS011;5127;50.922;6.988;2022-09-17T13:49:01;1.30;;;0.80;;
10170;SDS011;5127;50.922;6.988;2022-09-17T13:51:41;1.37;;;0.87;;
10170;SDS011;5127;50.922;6.988;2022-09-17T13:54:14;1.77;;;0.87;;
10170;SDS011;5127;50.922;6.988;2022-09-17T13:56:45;2.80;;;0.70;;
10170;SDS011;5127;50.922;6.988;2022-09-17T13:59:15;1.07;;;0.60;;
10170;SDS011;5127;50.922;6.988;2022-09-17T14:02:00;0.97;;;0.60;;
10170;SDS011;5127;50.922;6.988;2022-09-17T14:04:34;2.73;;;0.77;;
10170;SDS011;5127;50.922;6.988;2022-09-17T14:07:31;1.57;;;0.80;;
10170;SDS011;5127;50.922;6.988;2022-09-17T14:10:00;1.17;;;0.70;;
10170;SDS011;5127;50.922;6.988;2022-09-17T14:18:46;0.73;;;0.60;;
10170;SDS011;5127;50.922;6.988;2022-09-17T14:21:24;3.13;;;0.90;;
10170;SDS011;5127;50.922;6.988;2022-09-17T14:23:58;2.37;;;0.97;;
10170;SDS011;5127;50.922;6.988;2022-09-17T14:26:43;3.53;;;1.00;;
10170;SDS011;5127;50.922;6.988;2022-09-17T14:29:26;1.40;;;0.73;;
10170;SDS011;5127;50.922;6.988;2022-09-17T14:32:06;1.03;;;0.80;;
10170;SDS011;5127;50.922;6.988;2022-09-17T14:34:41;2.80;;;1.00;;
10170;SDS011;5127;50.922;6.988;2022-09-17T14:37:09;2.70;;;0.80;;
10170;SDS011;5127;50.922;6.988;2022-09-17T14:39:39;3.70;;;1.20;;
10170;SDS011;5127;50.922;6.988;2022-09-17T14:42:15;2.23;;;1.00;;
10170;SDS011;5127;50.922;6.988;2022-09-17T14:44:50;3.13;;;0.90;;
10170;SDS011;5127;50.922;6.988;2022-09-17T14:47:23;4.00;;;1.10;;
10170;SDS011;5127;50.922;6.988;2022-09-17T14:49:52;3.70;;;1.03;;
10170;SDS011;5127;50.922;6.988;2022-09-17T14:52:24;1.80;;;0.80;;
10170;SDS011;5127;50.922;6.988;2022-09-17T14:55:09;2.17;;;0.90;;
10170;SDS011;5127;50.922;6.988;2022-09-17T14:57:41;2.17;;;0.70;;
10170;SDS011;5127;50.922;6.988;2022-09-17T15:00:15;1.80;;;0.53;;
10170;SDS011;5127;50.922;6.988;2022-09-17T15:02:48;1.10;;;0.60;;
10170;SDS011;5127;50.922;6.988;2022-09-17T15:05:19;1.37;;;0.63;;
10170;SDS011;5127;50.922;6.988;2022-09-17T15:07:50;1.43;;;0.50;;
10170;SDS011;5127;50.922;6.988;2022-09-17T15:10:30;1.17;;;0.80;;
10170;SDS011;5127;50.922;6.988;2022-09-17T15:12:57;2.07;;;0.50;;
10170;SDS011;5127;50.922;6.988;2022-09-17T15:15:25;1.83;;;0.60;;
10170;SDS011;5127;50.922;6.988;2022-09-17T15:17:53;4.83;;;0.80;;
10170;SDS011;5127;50.922;6.988;2022-09-17T15:20:22;1.37;;;0.60;;
10170;SDS011;5127;50.922;6.988;2022-09-17T15:22:54;1.73;;;1.00;;
10170;SDS011;5127;50.922;6.988;2022-09-17T15:25:28;2.10;;;0.70;;
10170;SDS011;5127;50.922;6.988;2022-09-17T15:27:57;1.40;;;0.70;;
10170;SDS011;5127;50.922;6.988;2022-09-17T15:30:34;2.30;;;0.80;;
10170;SDS011;5127;50.922;6.988;2022-09-17T15:33:01;2.57;;;0.80;;
10170;SDS011;5127;50.922;6.988;2022-09-17T15:35:30;1.67;;;0.87;;
10170;SDS011;5127;50.922;6.988;2022-09-17T15:37:58;1.00;;;0.67;;
10170;SDS011;5127;50.922;6.988;2022-09-17T15:40:29;2.20;;;0.93;;
10170;SDS011;5127;50.922;6.988;2022-09-17T15:43:02;1.47;;;0.60;;
10170;SDS011;5127;50.922;6.988;2022-09-17T15:45:31;2.07;;;0.70;;
10170;SDS011;5127;50.922;6.988;2022-09-17T15:48:03;1.67;;;0.77;;
10170;SDS011;5127;50.922;6.988;2022-09-17T15:50:33;2.27;;;0.90;;
10170;SDS011;5127;50.922;6.988;2022-09-17T15:53:11;2.17;;;0.80;;
10170;SDS011;5127;50.922;6.988;2022-09-17T15:55:40;1.30;;;0.90;;
10170;SDS011;5127;50.922;6.988;2022-09-17T15:58:20;2.20;;;0.80;;
10170;SDS011;5127;50.922;6.988;2022-09-17T16:04:14;3.10;;;1.27;;